createdAt,value
2018-03-01T00:00:04.008Z,-9.33
2018-03-01T00:01:13.857Z,-9.35
2018-03-01T00:02:24.094Z,-9.31
2018-03-01T00:03:33.965Z,-9.31
2018-03-01T00:04:44.098Z,-9.33
2018-03-01T00:05:54.239Z,-9.33
2018-03-01T00:07:04.124Z,-9.28
2018-03-01T00:08:13.891Z,-9.31
2018-03-01T00:09:23.740Z,-9.28
2018-03-01T00:10:33.850Z,-9.33
2018-03-01T00:11:43.769Z,-9.33
2018-03-01T00:12:53.407Z,-9.25
2018-03-01T00:14:04.511Z,-9.35
2018-03-01T00:15:14.633Z,-9.38
2018-03-01T00:16:24.500Z,-9.34
2018-03-01T00:17:34.656Z,-9.31
2018-03-01T00:18:44.790Z,-9.41
2018-03-01T00:19:54.338Z,-9.4
2018-03-01T00:21:04.478Z,-9.35
2018-03-01T00:22:14.353Z,-9.34
2018-03-01T00:23:24.536Z,-9.34
2018-03-01T00:24:34.313Z,-9.35
2018-03-01T00:25:44.228Z,-9.38
2018-03-01T00:26:54.343Z,-9.4
2018-03-01T00:28:04.566Z,-9.35
2018-03-01T00:29:14.440Z,-9.34
2018-03-01T00:30:24.530Z,-9.38
2018-03-01T00:31:34.409Z,-9.34
2018-03-01T00:32:44.548Z,-9.41
2018-03-01T00:33:54.718Z,-9.38
2018-03-01T00:35:04.531Z,-9.48
2018-03-01T00:36:14.038Z,-9.34
2018-03-01T00:37:24.163Z,-9.44
2018-03-01T00:38:34.313Z,-9.27
2018-03-01T00:39:44.473Z,-9.37
2018-03-01T00:40:54.093Z,-9.34
2018-03-01T00:42:04.239Z,-9.34
2018-03-01T00:43:14.126Z,-9.4
2018-03-01T00:44:24.273Z,-9.33
2018-03-01T00:45:34.201Z,-9.35
2018-03-01T00:46:44.090Z,-9.4
2018-03-01T00:47:54.200Z,-9.38
2018-03-01T00:49:04.369Z,-9.38
2018-03-01T00:50:14.540Z,-9.43
2018-03-01T00:51:24.644Z,-9.43
2018-03-01T00:52:34.820Z,-9.37
2018-03-01T00:53:45.060Z,-9.35
2018-03-01T00:54:55.186Z,-9.4
2018-03-01T00:56:05.299Z,-9.38
2018-03-01T00:57:15.138Z,-9.38
2018-03-01T00:58:25.300Z,-9.37
2018-03-01T00:59:35.443Z,-9.51
2018-03-01T01:00:45.299Z,-9.44
2018-03-01T01:01:55.598Z,-9.46
2018-03-01T01:03:05.847Z,-9.51
2018-03-01T01:04:15.462Z,-9.44
2018-03-01T01:05:26.709Z,-9.41
2018-03-01T01:06:36.872Z,-9.44
2018-03-01T01:07:47.100Z,-9.37
2018-03-01T01:08:57.062Z,-9.48
2018-03-01T01:10:07.407Z,-9.48
2018-03-01T01:11:17.403Z,-9.44
2018-03-01T01:12:27.614Z,-9.48
2018-03-01T01:13:37.745Z,-9.49
2018-03-01T01:14:47.904Z,-9.38
2018-03-01T01:15:58.017Z,-9.34
2018-03-01T01:17:08.189Z,-9.4
2018-03-01T01:18:18.296Z,-9.46
2018-03-01T01:19:28.504Z,-9.37
2018-03-01T01:20:38.845Z,-9.38
2018-03-01T01:21:49.008Z,-9.54
2018-03-01T01:22:59.106Z,-9.48
2018-03-01T01:24:09.246Z,-9.51
2018-03-01T01:25:18.873Z,-9.46
2018-03-01T01:26:29.027Z,-9.49
2018-03-01T01:27:39.199Z,-9.48
2018-03-01T01:28:49.332Z,-9.46
2018-03-01T01:29:59.498Z,-9.48
2018-03-01T01:31:09.641Z,-9.38
2018-03-01T01:32:19.820Z,-9.44
2018-03-01T01:33:29.604Z,-9.52
2018-03-01T01:34:39.474Z,-9.48
2018-03-01T01:35:49.320Z,-9.51
2018-03-01T01:36:59.434Z,-9.62
2018-03-01T01:38:09.275Z,-9.55
2018-03-01T01:39:20.391Z,-9.55
2018-03-01T01:40:31.132Z,-9.59
2018-03-01T01:41:41.540Z,-9.59
2018-03-01T01:42:51.869Z,-9.49
2018-03-01T01:44:01.925Z,-9.44
2018-03-01T01:45:12.035Z,-9.52
2018-03-01T01:46:22.394Z,-9.61
2018-03-01T01:47:32.749Z,-9.56
2018-03-01T01:48:43.109Z,-9.55
2018-03-01T01:49:53.231Z,-9.54
2018-03-01T01:51:03.566Z,-9.59
2018-03-01T01:52:13.689Z,-9.56
2018-03-01T01:53:23.571Z,-9.58
2018-03-01T01:54:33.704Z,-9.55
2018-03-01T01:55:44.049Z,-9.51
2018-03-01T01:56:54.205Z,-9.54
2018-03-01T01:58:04.388Z,-9.58
2018-03-01T01:59:14.553Z,-9.58
2018-03-01T02:00:24.725Z,-9.62
2018-03-01T02:01:34.929Z,-9.56
2018-03-01T02:02:44.701Z,-9.58
2018-03-01T02:03:54.880Z,-9.62
2018-03-01T02:05:05.362Z,-9.67
2018-03-01T02:06:15.284Z,-9.64
2018-03-01T02:07:25.445Z,-9.62
2018-03-01T02:08:35.563Z,-9.62
2018-03-01T02:09:45.557Z,-9.62
2018-03-01T02:10:55.953Z,-9.61
2018-03-01T02:12:06.052Z,-9.59
2018-03-01T02:13:16.262Z,-9.62
2018-03-01T02:14:26.119Z,-9.7
2018-03-01T02:15:36.012Z,-9.81
2018-03-01T02:16:46.161Z,-9.64
2018-03-01T02:17:56.057Z,-9.69
2018-03-01T02:19:06.409Z,-9.67
2018-03-01T02:20:16.254Z,-9.66
2018-03-01T02:21:26.367Z,-9.83
2018-03-01T02:22:36.487Z,-9.83
2018-03-01T02:23:46.597Z,-9.76
2018-03-01T02:24:56.511Z,-9.78
2018-03-01T02:26:06.100Z,-9.8
2018-03-01T02:27:15.708Z,-9.88
2018-03-01T02:28:25.438Z,-9.85
2018-03-01T02:29:35.372Z,-9.88
2018-03-01T02:30:45.489Z,-9.85
2018-03-01T02:31:55.473Z,-9.91
2018-03-01T02:33:05.659Z,-9.96
2018-03-01T02:34:15.830Z,-9.88
2018-03-01T02:35:26.199Z,-9.83
2018-03-01T02:36:35.963Z,-9.81
2018-03-01T02:37:46.798Z,-9.76
2018-03-01T02:38:56.945Z,-9.89
2018-03-01T02:40:06.524Z,-9.86
2018-03-01T02:41:16.417Z,-9.81
2018-03-01T02:42:25.962Z,-9.76
2018-03-01T02:43:35.933Z,-9.73
2018-03-01T02:44:46.063Z,-9.74
2018-03-01T02:45:56.172Z,-9.66
2018-03-01T02:47:06.336Z,-9.76
2018-03-01T02:48:16.484Z,-9.73
2018-03-01T02:49:26.596Z,-9.81
2018-03-01T02:50:36.580Z,-9.78
2018-03-01T02:51:46.472Z,-9.78
2018-03-01T02:52:56.621Z,-9.78
2018-03-01T02:54:06.741Z,-9.8
2018-03-01T02:55:16.681Z,-9.91
2018-03-01T02:56:26.784Z,-9.78
2018-03-01T02:57:36.313Z,-9.86
2018-03-01T02:58:46.464Z,-9.76
2018-03-01T02:59:56.574Z,-9.86
2018-03-01T03:01:06.697Z,-9.85
2018-03-01T03:02:16.837Z,-9.81
2018-03-01T03:03:26.710Z,-9.81
2018-03-01T03:04:36.561Z,-9.92
2018-03-01T03:05:46.157Z,-9.91
2018-03-01T03:06:55.918Z,-9.86
2018-03-01T03:08:06.051Z,-9.83
2018-03-01T03:09:15.684Z,-9.86
2018-03-01T03:10:25.815Z,-9.8
2018-03-01T03:11:36.015Z,-9.83
2018-03-01T03:12:46.194Z,-9.74
2018-03-01T03:13:56.342Z,-9.81
2018-03-01T03:15:06.215Z,-9.64
2018-03-01T03:16:19.634Z,-9.66
2018-03-01T03:17:29.735Z,-9.66
2018-03-01T03:18:39.858Z,-9.56
2018-03-01T03:19:50.132Z,-9.78
2018-03-01T03:21:00.356Z,-9.67
2018-03-01T03:22:10.214Z,-9.76
2018-03-01T03:23:20.149Z,-9.73
2018-03-01T03:24:30.294Z,-9.76
2018-03-01T03:25:40.064Z,-9.85
2018-03-01T03:26:50.174Z,-9.86
2018-03-01T03:28:00.288Z,-9.95
2018-03-01T03:29:10.142Z,-9.92
2018-03-01T03:30:20.014Z,-9.92
2018-03-01T03:31:30.132Z,-10.01
2018-03-01T03:32:40.293Z,-9.95
2018-03-01T03:33:50.445Z,-10.01
2018-03-01T03:35:00.566Z,-9.99
2018-03-01T03:36:10.670Z,-10.01
2018-03-01T03:37:20.812Z,-9.99
2018-03-01T03:38:30.925Z,-9.95
2018-03-01T03:39:41.075Z,-9.95
2018-03-01T03:40:50.947Z,-9.99
2018-03-01T03:42:01.067Z,-9.96
2018-03-01T03:43:11.193Z,-10.01
2018-03-01T03:44:21.353Z,-10.01
2018-03-01T03:45:31.508Z,-10.07
2018-03-01T03:46:41.778Z,-10.13
2018-03-01T03:47:51.928Z,-10.13
2018-03-01T03:49:01.819Z,-10.12
2018-03-01T03:50:11.727Z,-10.06
2018-03-01T03:51:21.840Z,-10.09
2018-03-01T03:52:31.741Z,-10.06
2018-03-01T03:53:41.849Z,-9.96
2018-03-01T03:54:51.971Z,-9.96
2018-03-01T03:56:02.155Z,-10.01
2018-03-01T03:57:12.316Z,-10.04
2018-03-01T03:58:22.536Z,-10.01
2018-03-01T03:59:32.705Z,-10.03
2018-03-01T04:00:42.866Z,-10.03
2018-03-01T04:01:52.993Z,-10.06
2018-03-01T04:03:03.106Z,-10.14
2018-03-01T04:04:14.203Z,-10.09
2018-03-01T04:05:24.073Z,-10.1
2018-03-01T04:06:34.211Z,-10.17
2018-03-01T04:07:44.403Z,-10.17
2018-03-01T04:08:54.583Z,-10.33
2018-03-01T04:10:04.150Z,-10.14
2018-03-01T04:11:14.521Z,-10.19
2018-03-01T04:12:24.643Z,-10.2
2018-03-01T04:13:34.793Z,-10.17
2018-03-01T04:14:44.990Z,-10.19
2018-03-01T04:15:54.725Z,-10.13
2018-03-01T04:17:04.843Z,-10.13
2018-03-01T04:18:14.742Z,-10.1
2018-03-01T04:19:24.910Z,-10.12
2018-03-01T04:20:35.055Z,-10.17
2018-03-01T04:21:45.192Z,-10.09
2018-03-01T04:22:55.435Z,-10.1
2018-03-01T04:24:05.269Z,-10.09
2018-03-01T04:25:15.392Z,-10.13
2018-03-01T04:26:25.507Z,-10.13
2018-03-01T04:27:35.695Z,-10.24
2018-03-01T04:28:45.560Z,-10.24
2018-03-01T04:29:55.686Z,-10.27
2018-03-01T04:31:05.905Z,-10.27
2018-03-01T04:32:16.071Z,-10.19
2018-03-01T04:33:25.917Z,-10.23
2018-03-01T04:34:37.049Z,-10.23
2018-03-01T04:35:46.973Z,-10.24
2018-03-01T04:36:57.125Z,-10.2
2018-03-01T04:38:07.244Z,-10.24
2018-03-01T04:39:16.922Z,-10.23
2018-03-01T04:40:27.088Z,-10.24
2018-03-01T04:41:36.653Z,-10.14
2018-03-01T04:42:46.733Z,-10.2
2018-03-01T04:43:56.592Z,-10.12
2018-03-01T04:45:06.687Z,-10.09
2018-03-01T04:46:16.292Z,-10.06
2018-03-01T04:47:26.177Z,-10.04
2018-03-01T04:48:36.312Z,-10.06
2018-03-01T04:49:46.155Z,-9.99
2018-03-01T04:50:56.283Z,-10.01
2018-03-01T04:52:06.400Z,-9.94
2018-03-01T04:53:16.552Z,-9.83
2018-03-01T04:54:26.736Z,-9.88
2018-03-01T04:55:36.887Z,-9.95
2018-03-01T04:56:47.048Z,-10.01
2018-03-01T04:57:57.042Z,-9.99
2018-03-01T04:59:07.289Z,-9.98
2018-03-01T05:00:17.498Z,-9.98
2018-03-01T05:01:27.701Z,-9.86
2018-03-01T05:02:37.934Z,-9.89
2018-03-01T05:03:48.149Z,-9.96
2018-03-01T05:04:58.297Z,-10.01
2018-03-01T05:06:08.430Z,-10.04
2018-03-01T05:07:18.542Z,-10.04
2018-03-01T05:08:28.656Z,-9.94
2018-03-01T05:09:38.798Z,-10.01
2018-03-01T05:10:48.915Z,-10.06
2018-03-01T05:11:59.131Z,-10.14
2018-03-01T05:13:09.290Z,-10.13
2018-03-01T05:14:19.433Z,-10.16
2018-03-01T05:15:29.541Z,-10.13
2018-03-01T05:16:39.760Z,-10.1
2018-03-01T05:17:49.894Z,-10.04
2018-03-01T05:19:00.032Z,-10.04
2018-03-01T05:20:10.177Z,-10.04
2018-03-01T05:21:20.282Z,-10.03
2018-03-01T05:22:30.398Z,-10.03
2018-03-01T05:23:40.505Z,-10.01
2018-03-01T05:24:50.664Z,-10.01
2018-03-01T05:26:00.795Z,-10.06
2018-03-01T05:27:10.927Z,-10.07
2018-03-01T05:28:21.042Z,-10.06
2018-03-01T05:29:30.921Z,-10.12
2018-03-01T05:30:40.772Z,-10.12
2018-03-01T05:31:50.691Z,-10.14
2018-03-01T05:33:00.066Z,-10.13
2018-03-01T05:34:10.215Z,-10.1
2018-03-01T05:35:20.345Z,-10.2
2018-03-01T05:36:30.471Z,-10.25
2018-03-01T05:37:40.329Z,-10.19
2018-03-01T05:38:50.455Z,-10.17
2018-03-01T05:40:00.680Z,-10.09
2018-03-01T05:41:10.838Z,-10.09
2018-03-01T05:42:20.986Z,-10.13
2018-03-01T05:43:31.159Z,-10.06
2018-03-01T05:44:41.327Z,-10.04
2018-03-01T05:45:51.464Z,-9.99
2018-03-01T05:47:01.638Z,-10.03
2018-03-01T05:48:11.780Z,-10.09
2018-03-01T05:49:21.969Z,-10.13
2018-03-01T05:50:32.173Z,-10.23
2018-03-01T05:51:42.411Z,-10.25
2018-03-01T05:52:52.632Z,-10.23
2018-03-01T05:54:02.881Z,-10.1
2018-03-01T05:55:12.838Z,-10.14
2018-03-01T05:56:22.964Z,-10.16
2018-03-01T05:57:33.089Z,-10.3
2018-03-01T05:58:42.975Z,-10.3
2018-03-01T05:59:52.920Z,-10.31
2018-03-01T06:01:03.204Z,-10.34
2018-03-01T06:02:12.779Z,-10.42
2018-03-01T06:03:22.715Z,-10.38
2018-03-01T06:04:32.608Z,-10.33
2018-03-01T06:05:42.776Z,-10.33
2018-03-01T06:06:52.543Z,-10.34
2018-03-01T06:08:02.396Z,-10.49
2018-03-01T06:09:12.510Z,-10.43
2018-03-01T06:10:22.621Z,-10.42
2018-03-01T06:11:32.484Z,-10.38
2018-03-01T06:12:42.249Z,-10.55
2018-03-01T06:13:52.391Z,-10.56
2018-03-01T06:15:02.082Z,-10.48
2018-03-01T06:16:12.309Z,-10.38
2018-03-01T06:17:22.475Z,-10.41
2018-03-01T06:18:32.707Z,-10.49
2018-03-01T06:19:42.566Z,-10.52
2018-03-01T06:20:52.681Z,-10.52
2018-03-01T06:22:02.809Z,-10.53
2018-03-01T06:23:12.966Z,-10.48
2018-03-01T06:24:22.820Z,-10.48
2018-03-01T06:25:33.018Z,-10.51
2018-03-01T06:26:43.226Z,-10.52
2018-03-01T06:27:53.422Z,-10.34
2018-03-01T06:29:03.448Z,-10.42
2018-03-01T06:30:13.113Z,-10.37
2018-03-01T06:31:23.253Z,-10.3
2018-03-01T06:32:33.446Z,-10.37
2018-03-01T06:33:43.226Z,-10.42
2018-03-01T06:34:53.327Z,-10.43
2018-03-01T06:36:03.457Z,-10.52
2018-03-01T06:37:13.663Z,-10.55
2018-03-01T06:38:24.934Z,-10.55
2018-03-01T06:39:34.827Z,-10.56
2018-03-01T06:40:44.983Z,-10.52
2018-03-01T06:41:55.149Z,-10.48
2018-03-01T06:43:05.338Z,-10.45
2018-03-01T06:44:15.697Z,-10.46
2018-03-01T06:45:25.562Z,-10.46
2018-03-01T06:46:35.751Z,-10.49
2018-03-01T06:47:45.921Z,-10.52
2018-03-01T06:48:56.052Z,-10.56
2018-03-01T06:50:05.923Z,-10.69
2018-03-01T06:51:16.056Z,-10.69
2018-03-01T06:52:26.180Z,-10.63
2018-03-01T06:53:36.355Z,-10.6
2018-03-01T06:54:46.579Z,-10.66
2018-03-01T06:55:56.752Z,-10.53
2018-03-01T06:57:06.956Z,-10.52
2018-03-01T06:58:16.857Z,-10.63
2018-03-01T06:59:26.728Z,-10.64
2018-03-01T07:00:36.852Z,-10.72
2018-03-01T07:01:47.048Z,-10.72
2018-03-01T07:02:56.975Z,-10.74
2018-03-01T07:04:06.845Z,-10.66
2018-03-01T07:05:17.004Z,-10.6
2018-03-01T07:06:27.140Z,-10.56
2018-03-01T07:07:36.851Z,-10.53
2018-03-01T07:08:47.030Z,-10.43
2018-03-01T07:09:56.708Z,-10.43
2018-03-01T07:11:06.915Z,-10.38
2018-03-01T07:12:16.885Z,-10.51
2018-03-01T07:13:27.024Z,-10.46
2018-03-01T07:14:37.132Z,-10.56
2018-03-01T07:15:47.284Z,-10.42
2018-03-01T07:16:57.568Z,-10.45
2018-03-01T07:18:07.439Z,-10.35
2018-03-01T07:19:17.380Z,-10.33
2018-03-01T07:20:26.356Z,-10.3
2018-03-01T07:21:36.063Z,-10.41
2018-03-01T07:22:46.204Z,-10.45
2018-03-01T07:23:56.389Z,-10.49
2018-03-01T07:25:06.077Z,-10.42
2018-03-01T07:26:15.736Z,-10.53
2018-03-01T07:27:26.010Z,-10.37
2018-03-01T07:28:35.925Z,-10.07
2018-03-01T07:29:46.053Z,-10.01
2018-03-01T07:30:56.181Z,-9.85
2018-03-01T07:32:06.100Z,-9.81
2018-03-01T07:33:16.944Z,-9.72
2018-03-01T07:34:27.049Z,-9.54
2018-03-01T07:35:37.226Z,-9.4
2018-03-01T07:36:47.373Z,-8.91
2018-03-01T07:37:57.118Z,-7.91
2018-03-01T07:39:07.086Z,-6.98
2018-03-01T07:40:17.209Z,-6.11
2018-03-01T07:41:27.326Z,-5.46
2018-03-01T07:42:37.448Z,-5.12
2018-03-01T07:43:47.602Z,-4.74
2018-03-01T07:44:57.808Z,-4.37
2018-03-01T07:46:07.947Z,-4.28
2018-03-01T07:47:17.833Z,-4
2018-03-01T07:48:28.071Z,-3.92
2018-03-01T07:49:38.202Z,-3.63
2018-03-01T07:50:48.455Z,-3.26
2018-03-01T07:51:58.590Z,-3.01
2018-03-01T07:53:08.483Z,-2.54
2018-03-01T07:54:18.689Z,-2.06
2018-03-01T07:55:28.846Z,-1.52
2018-03-01T07:56:38.986Z,-0.85
2018-03-01T07:57:49.189Z,-0.45
2018-03-01T07:58:59.358Z,-0.17
2018-03-01T08:00:09.502Z,-0.3
2018-03-01T08:01:19.468Z,-0.37
2018-03-01T08:02:29.750Z,-0.51
2018-03-01T08:03:39.315Z,-0.48
2018-03-01T08:04:48.615Z,-0.3
2018-03-01T08:05:58.487Z,-0.31
2018-03-01T08:07:08.696Z,-0.48
2018-03-01T08:08:18.565Z,-0.73
2018-03-01T08:09:28.752Z,-0.88
2018-03-01T08:10:38.536Z,-1.2
2018-03-01T08:11:48.662Z,-1.25
2018-03-01T08:12:58.525Z,-1.26
2018-03-01T08:14:08.384Z,-1.1
2018-03-01T08:15:18.154Z,-0.87
2018-03-01T08:16:28.051Z,-0.53
2018-03-01T08:17:37.671Z,-0.41
2018-03-01T08:18:47.538Z,-0.3
2018-03-01T08:19:57.428Z,-0.34
2018-03-01T08:21:07.328Z,-0.43
2018-03-01T08:22:17.487Z,-0.49
2018-03-01T08:23:27.619Z,-0.4
2018-03-01T08:24:37.779Z,-0.27
2018-03-01T08:25:47.925Z,0.02
2018-03-01T08:26:57.734Z,0.2
2018-03-01T08:28:07.867Z,0.54
2018-03-01T08:29:18.091Z,0.82
2018-03-01T08:30:28.277Z,1.18
2018-03-01T08:31:38.140Z,1.3
2018-03-01T08:32:47.654Z,1.04
2018-03-01T08:33:57.953Z,0.82
2018-03-01T08:35:08.183Z,0.66
2018-03-01T08:36:18.367Z,0.66
2018-03-01T08:37:28.658Z,0.84
2018-03-01T08:38:38.886Z,0.88
2018-03-01T08:39:49.039Z,1.12
2018-03-01T08:40:59.255Z,1.32
2018-03-01T08:42:09.500Z,1.43
2018-03-01T08:43:19.683Z,1.69
2018-03-01T08:44:29.971Z,1.73
2018-03-01T08:45:40.128Z,1.7
2018-03-01T08:46:50.358Z,1.87
2018-03-01T08:48:00.548Z,2.15
2018-03-01T08:49:10.807Z,2.1
2018-03-01T08:50:21.036Z,2.19
2018-03-01T08:51:31.246Z,2.13
2018-03-01T08:52:41.550Z,2.26
2018-03-01T08:53:51.792Z,2.33
2018-03-01T08:55:01.775Z,2.31
2018-03-01T08:56:12.079Z,2.45
2018-03-01T08:57:22.341Z,2.53
2018-03-01T08:58:32.241Z,2.67
2018-03-01T08:59:41.787Z,2.88
2018-03-01T09:00:51.703Z,3.26
2018-03-01T09:02:01.840Z,3.79
2018-03-01T09:03:11.976Z,3.91
2018-03-01T09:04:22.121Z,3.87
2018-03-01T09:05:32.059Z,3.72
2018-03-01T09:06:42.266Z,3.52
2018-03-01T09:07:52.167Z,3.58
2018-03-01T09:09:01.950Z,3.73
2018-03-01T09:10:12.093Z,3.72
2018-03-01T09:11:22.239Z,3.64
2018-03-01T09:12:32.406Z,3.67
2018-03-01T09:13:41.944Z,3.52
2018-03-01T09:14:52.151Z,3.22
2018-03-01T09:16:02.026Z,3.08
2018-03-01T09:17:11.654Z,3.16
2018-03-01T09:18:21.790Z,3.25
2018-03-01T09:19:31.964Z,3.5
2018-03-01T09:20:42.109Z,3.73
2018-03-01T09:21:52.311Z,3.9
2018-03-01T09:23:02.465Z,3.8
2018-03-01T09:24:12.680Z,3.69
2018-03-01T09:25:22.631Z,3.68
2018-03-01T09:26:32.413Z,3.68
2018-03-01T09:27:42.572Z,3.19
2018-03-01T09:28:52.708Z,2.94
2018-03-01T09:30:02.831Z,2.96
2018-03-01T09:31:12.765Z,3.25
2018-03-01T09:32:22.968Z,3.52
2018-03-01T09:33:33.142Z,3.73
2018-03-01T09:34:43.371Z,3.69
2018-03-01T09:35:53.544Z,3.9
2018-03-01T09:37:03.728Z,3.98
2018-03-01T09:38:13.632Z,4.12
2018-03-01T09:39:23.782Z,4.41
2018-03-01T09:40:33.970Z,4.57
2018-03-01T09:41:44.140Z,4.55
2018-03-01T09:42:54.364Z,4.23
2018-03-01T09:44:04.529Z,4.23
2018-03-01T09:45:14.769Z,4.27
2018-03-01T09:46:24.946Z,4.12
2018-03-01T09:47:35.223Z,4.01
2018-03-01T09:48:45.108Z,3.9
2018-03-01T09:49:55.001Z,3.98
2018-03-01T09:51:05.172Z,4.2
2018-03-01T09:52:15.308Z,4.3
2018-03-01T09:53:25.470Z,4.22
2018-03-01T09:54:35.275Z,3.98
2018-03-01T09:55:45.425Z,3.68
2018-03-01T09:56:55.587Z,3.55
2018-03-01T09:58:05.861Z,3.26
2018-03-01T09:59:16.003Z,3.06
2018-03-01T10:00:26.224Z,3.08
2018-03-01T10:01:36.383Z,2.94
2018-03-01T10:02:46.572Z,2.89
2018-03-01T10:03:56.577Z,2.89
2018-03-01T10:05:06.870Z,3.08
2018-03-01T10:06:16.885Z,3.31
2018-03-01T10:07:27.070Z,3.31
2018-03-01T10:08:36.454Z,3.06
2018-03-01T10:09:46.590Z,3.04
2018-03-01T10:10:56.796Z,3.11
2018-03-01T10:12:06.982Z,3.25
2018-03-01T10:13:16.779Z,3.47
2018-03-01T10:14:26.980Z,3.55
2018-03-01T10:15:37.180Z,3.64
2018-03-01T10:16:46.892Z,3.39
2018-03-01T10:17:57.056Z,3.1
2018-03-01T10:19:07.310Z,2.79
2018-03-01T10:20:17.418Z,2.55
2018-03-01T10:21:28.205Z,2.51
2018-03-01T10:22:38.132Z,2.23
2018-03-01T10:23:48.129Z,2.05
2018-03-01T10:24:58.346Z,1.74
2018-03-01T10:26:08.221Z,1.5
2018-03-01T10:27:18.132Z,1.64
2018-03-01T10:28:28.328Z,1.87
2018-03-01T10:29:38.516Z,2.3
2018-03-01T10:30:48.725Z,2.3
2018-03-01T10:31:58.707Z,2.33
2018-03-01T10:33:08.883Z,2.16
2018-03-01T10:34:19.115Z,1.98
2018-03-01T10:35:29.315Z,2
2018-03-01T10:36:39.578Z,2.23
2018-03-01T10:37:49.486Z,2.46
2018-03-01T10:38:59.689Z,2.51
2018-03-01T10:40:09.835Z,2.41
2018-03-01T10:41:19.744Z,2.28
2018-03-01T10:42:29.452Z,2.19
2018-03-01T10:43:39.386Z,2.08
2018-03-01T10:44:49.289Z,2.13
2018-03-01T10:45:59.493Z,2.26
2018-03-01T10:47:09.647Z,2.51
2018-03-01T10:48:19.867Z,2.78
2018-03-01T10:49:30.140Z,2.96
2018-03-01T10:50:40.348Z,3.1
2018-03-01T10:51:49.711Z,3.44
2018-03-01T10:52:59.886Z,3.68
2018-03-01T10:54:09.493Z,3.9
2018-03-01T10:55:19.380Z,4.13
2018-03-01T10:56:29.498Z,4.27
2018-03-01T10:57:39.681Z,4.5
2018-03-01T10:58:49.602Z,4.37
2018-03-01T10:59:59.769Z,4.38
2018-03-01T11:01:09.981Z,4.41
2018-03-01T11:02:19.786Z,4.7
2018-03-01T11:03:29.802Z,4.68
2018-03-01T11:04:39.367Z,4.88
2018-03-01T11:05:49.279Z,4.98
2018-03-01T11:06:59.599Z,4.89
2018-03-01T11:08:09.804Z,4.8
2018-03-01T11:09:19.996Z,4.52
2018-03-01T11:10:30.240Z,4.41
2018-03-01T11:11:40.490Z,4.2
2018-03-01T11:12:50.644Z,3.69
2018-03-01T11:14:00.851Z,3.36
2018-03-01T11:15:11.021Z,3.13
2018-03-01T11:16:21.340Z,3.07
2018-03-01T11:17:31.493Z,2.85
2018-03-01T11:18:41.749Z,2.63
2018-03-01T11:19:51.318Z,2.42
2018-03-01T11:21:01.109Z,2.19
2018-03-01T11:22:11.354Z,2.06
2018-03-01T11:23:21.721Z,2.23
2018-03-01T11:24:31.935Z,2.28
2018-03-01T11:25:41.847Z,2.23
2018-03-01T11:26:51.996Z,2.33
2018-03-01T11:28:02.218Z,2.46
2018-03-01T11:29:12.401Z,2.34
2018-03-01T11:30:22.701Z,2.33
2018-03-01T11:31:32.461Z,2.15
2018-03-01T11:32:42.635Z,2.09
2018-03-01T11:33:52.820Z,1.98
2018-03-01T11:35:03.057Z,1.9
2018-03-01T11:36:13.083Z,1.74
2018-03-01T11:37:22.989Z,2.03
2018-03-01T11:38:32.948Z,2.36
2018-03-01T11:39:43.203Z,2.62
2018-03-01T11:40:53.476Z,2.88
2018-03-01T11:42:03.307Z,2.82
2018-03-01T11:43:12.950Z,2.77
2018-03-01T11:44:22.854Z,2.56
2018-03-01T11:45:32.991Z,2.46
2018-03-01T11:46:43.225Z,2.37
2018-03-01T11:47:53.646Z,2.51
2018-03-01T11:49:03.554Z,2.66
2018-03-01T11:50:13.207Z,2.89
2018-03-01T11:51:23.437Z,3.06
2018-03-01T11:52:33.391Z,3.37
2018-03-01T11:53:43.292Z,3.64
2018-03-01T11:54:53.435Z,3.68
2018-03-01T11:56:03.424Z,3.68
2018-03-01T11:57:13.635Z,3.75
2018-03-01T11:58:23.664Z,3.54
2018-03-01T11:59:33.637Z,3.52
2018-03-01T12:00:43.248Z,3.55
2018-03-01T12:01:53.454Z,3.76
2018-03-01T12:03:03.632Z,3.58
2018-03-01T12:04:13.530Z,3.26
2018-03-01T12:05:23.766Z,2.94
2018-03-01T12:06:34.167Z,2.71
2018-03-01T12:07:44.320Z,2.77
2018-03-01T12:08:54.202Z,2.84
2018-03-01T12:10:04.115Z,2.89
2018-03-01T12:11:14.292Z,2.85
2018-03-01T12:12:24.560Z,2.96
2018-03-01T12:13:35.225Z,2.99
2018-03-01T12:14:45.528Z,3.02
2018-03-01T12:15:55.756Z,2.96
2018-03-01T12:17:06.154Z,2.79
2018-03-01T12:18:16.332Z,2.69
2018-03-01T12:19:26.742Z,2.53
2018-03-01T12:20:36.927Z,2.33
2018-03-01T12:21:47.262Z,2.31
2018-03-01T12:22:57.638Z,2.41
2018-03-01T12:24:07.871Z,2.45
2018-03-01T12:25:18.060Z,2.62
2018-03-01T12:26:28.684Z,2.82
2018-03-01T12:27:38.914Z,3.02
2018-03-01T12:28:49.180Z,3.21
2018-03-01T12:29:59.462Z,3.06
2018-03-01T12:31:09.736Z,2.91
2018-03-01T12:32:19.900Z,2.78
2018-03-01T12:33:30.061Z,2.55
2018-03-01T12:34:40.359Z,2.36
2018-03-01T12:35:50.573Z,2.34
2018-03-01T12:37:00.728Z,2.45
2018-03-01T12:38:10.523Z,2.73
2018-03-01T12:39:20.685Z,2.99
2018-03-01T12:40:30.920Z,3.11
2018-03-01T12:41:41.101Z,3.54
2018-03-01T12:42:51.351Z,3.75
2018-03-01T12:44:01.524Z,3.95
2018-03-01T12:45:11.692Z,3.98
2018-03-01T12:46:21.845Z,3.95
2018-03-01T12:47:32.134Z,3.83
2018-03-01T12:49:56.802Z,3.77
2018-03-01T12:51:07.958Z,3.76
2018-03-01T12:52:18.138Z,3.61
2018-03-01T12:53:29.274Z,3.36
2018-03-01T12:54:39.455Z,3.43
2018-03-01T12:55:50.573Z,3.39
2018-03-01T12:57:00.792Z,3.08
2018-03-01T12:58:10.642Z,2.81
2018-03-01T12:59:20.919Z,2.55
2018-03-01T13:00:31.099Z,2.39
2018-03-01T13:01:41.249Z,2.53
2018-03-01T13:02:51.495Z,2.67
2018-03-01T13:04:01.890Z,2.64
2018-03-01T13:05:12.065Z,2.73
2018-03-01T13:06:22.250Z,2.82
2018-03-01T13:07:32.188Z,2.85
2018-03-01T13:08:42.124Z,2.88
2018-03-01T13:09:52.029Z,2.84
2018-03-01T13:11:02.220Z,2.84
2018-03-01T13:12:12.257Z,2.84
2018-03-01T13:13:21.973Z,2.77
2018-03-01T13:14:32.122Z,2.6
2018-03-01T13:15:42.074Z,2.44
2018-03-01T13:16:52.339Z,1.98
2018-03-01T13:18:02.538Z,1.66
2018-03-01T13:19:12.600Z,1.54
2018-03-01T13:20:22.533Z,1.46
2018-03-01T13:21:32.406Z,1.55
2018-03-01T13:22:42.504Z,1.48
2018-03-01T13:23:52.695Z,1.48
2018-03-01T13:25:02.859Z,1.47
2018-03-01T13:26:13.039Z,1.25
2018-03-01T13:27:23.225Z,1.25
2018-03-01T13:28:33.467Z,1.22
2018-03-01T13:33:34.961Z,0.58
2018-03-01T13:36:02.959Z,-0.04
2018-03-01T13:38:31.811Z,-0.51
2018-03-01T13:39:40.963Z,-0.76
2018-03-01T13:40:50.877Z,-0.92
2018-03-01T13:42:01.020Z,-1.06
2018-03-01T13:43:10.919Z,-1.26
2018-03-01T13:44:21.168Z,-1.25
2018-03-01T13:45:31.416Z,-1.16
2018-03-01T13:46:41.593Z,-1.06
2018-03-01T13:47:51.804Z,-0.98
2018-03-01T13:49:01.769Z,-0.95
2018-03-01T13:50:11.703Z,-1
2018-03-01T13:51:21.865Z,-0.96
2018-03-01T13:52:31.761Z,-0.94
2018-03-01T13:53:41.927Z,-0.81
2018-03-01T13:54:52.096Z,-0.76
2018-03-01T13:56:01.930Z,-0.78
2018-03-01T13:57:11.838Z,-0.87
2018-03-01T13:58:22.233Z,-0.85
2018-03-01T13:59:31.878Z,-0.85
2018-03-01T14:00:42.038Z,-0.91
2018-03-01T14:01:51.984Z,-0.88
2018-03-01T14:03:02.079Z,-1.06
2018-03-01T14:04:11.496Z,-1.07
2018-03-01T14:05:21.647Z,-1.2
2018-03-01T14:06:31.550Z,-1.29
2018-03-01T14:07:41.469Z,-1.46
2018-03-01T14:08:51.600Z,-1.68
2018-03-01T14:10:01.893Z,-1.86
2018-03-01T14:11:12.064Z,-1.96
2018-03-01T14:12:21.886Z,-1.94
2018-03-01T14:13:31.789Z,-1.86
2018-03-01T14:14:42.016Z,-1.82
2018-03-01T14:15:51.941Z,-1.85
2018-03-01T14:17:02.099Z,-1.96
2018-03-01T14:18:12.251Z,-1.94
2018-03-01T14:19:22.438Z,-2.01
2018-03-01T14:21:04.469Z,-2.22
2018-03-01T14:22:14.645Z,-2.37
2018-03-01T14:23:24.872Z,-2.44
2018-03-01T14:24:34.728Z,-2.43
2018-03-01T14:25:44.965Z,-2.42
2018-03-01T14:26:54.881Z,-2.34
2018-03-01T14:28:04.788Z,-2.26
2018-03-01T14:29:15.974Z,-2.24
2018-03-01T14:30:26.181Z,-2.25
2018-03-01T14:31:36.088Z,-2.36
2018-03-01T14:32:45.796Z,-2.37
2018-03-01T14:33:56.975Z,-2.37
2018-03-01T14:35:07.267Z,-2.46
2018-03-01T14:36:17.251Z,-2.44
2018-03-01T14:37:27.462Z,-2.42
2018-03-01T14:38:37.256Z,-2.44
2018-03-01T14:39:47.156Z,-2.29
2018-03-01T14:40:56.993Z,-2.19
2018-03-01T14:42:07.266Z,-2.4
2018-03-01T14:43:17.456Z,-2.51
2018-03-01T14:44:27.418Z,-2.76
2018-03-01T14:45:38.179Z,-2.8
2018-03-01T14:46:48.357Z,-2.88
2018-03-01T14:47:58.527Z,-2.97
2018-03-01T14:49:08.415Z,-2.91
2018-03-01T14:50:18.681Z,-2.89
2018-03-01T14:51:28.570Z,-2.86
2018-03-01T14:52:38.723Z,-2.92
2018-03-01T14:53:48.919Z,-2.89
2018-03-01T14:54:58.838Z,-2.79
2018-03-01T14:56:09.020Z,-2.65
2018-03-01T14:57:19.202Z,-2.55
2018-03-01T14:58:29.361Z,-2.68
2018-03-01T14:59:39.264Z,-2.89
2018-03-01T15:00:49.467Z,-2.95
2018-03-01T15:01:59.008Z,-2.92
2018-03-01T15:03:08.943Z,-2.91
2018-03-01T15:04:19.136Z,-2.97
2018-03-01T15:05:29.317Z,-3.05
2018-03-01T15:06:39.479Z,-3.04
2018-03-01T15:07:49.136Z,-3.02
2018-03-01T15:08:59.340Z,-3.01
2018-03-01T15:10:09.521Z,-3.08
2018-03-01T15:11:20.298Z,-3.05
2018-03-01T15:12:30.745Z,-3.12
2018-03-01T15:13:41.117Z,-3.08
2018-03-01T15:14:54.948Z,-3.04
2018-03-01T15:16:04.841Z,-3.12